sensor_id;sensor_type;location;lat;lon;timestamp;temperature;humidity
4635;DHT22;2330;48.158;11.816;2022-09-09T00:04:03;15.00;98.50
4635;DHT22;2330;48.158;11.816;2022-09-09T00:06:50;15.00;98.50
4635;DHT22;2330;48.158;11.816;2022-09-09T00:09:22;15.00;98.50
4635;DHT22;2330;48.158;11.816;2022-09-09T00:11:54;15.00;98.50
4635;DHT22;2330;48.158;11.816;2022-09-09T00:14:44;15.00;98.50
4635;DHT22;2330;48.158;11.816;2022-09-09T00:17:37;14.90;98.50
4635;DHT22;2330;48.158;11.816;2022-09-09T00:20:13;14.80;98.50
4635;DHT22;2330;48.158;11.816;2022-09-09T00:22:56;14.80;98.50
4635;DHT22;2330;48.158;11.816;2022-09-09T00:25:34;14.80;98.50
4635;DHT22;2330;48.158;11.816;2022-09-09T00:28:18;14.70;98.50
4635;DHT22;2330;48.158;11.816;2022-09-09T00:30:46;14.70;98.50
4635;DHT22;2330;48.158;11.816;2022-09-09T00:33:17;14.70;98.50
4635;DHT22;2330;48.158;11.816;2022-09-09T00:35:53;14.80;98.50
4635;DHT22;2330;48.158;11.816;2022-09-09T00:38:28;14.70;98.50
4635;DHT22;2330;48.158;11.816;2022-09-09T00:43:37;14.80;98.50
4635;DHT22;2330;48.158;11.816;2022-09-09T00:48:44;14.70;98.50
4635;DHT22;2330;48.158;11.816;2022-09-09T00:59:35;14.60;98.50
4635;DHT22;2330;48.158;11.816;2022-09-09T01:04:45;14.60;98.50
4635;DHT22;2330;48.158;11.816;2022-09-09T01:07:17;14.70;98.50
4635;DHT22;2330;48.158;11.816;2022-09-09T01:09:58;14.60;98.50
4635;DHT22;2330;48.158;11.816;2022-09-09T01:12:26;14.60;98.50
4635;DHT22;2330;48.158;11.816;2022-09-09T01:15:07;14.70;98.50
4635;DHT22;2330;48.158;11.816;2022-09-09T01:17:48;14.70;98.50
4635;DHT22;2330;48.158;11.816;2022-09-09T01:20:24;14.70;98.50
4635;DHT22;2330;48.158;11.816;2022-09-09T01:28:28;14.70;98.50
4635;DHT22;2330;48.158;11.816;2022-09-09T01:30:56;14.80;98.50
4635;DHT22;2330;48.158;11.816;2022-09-09T01:33:24;14.80;98.50
4635;DHT22;2330;48.158;11.816;2022-09-09T01:38:28;15.00;98.50
4635;DHT22;2330;48.158;11.816;2022-09-09T01:40:55;15.10;98.50
4635;DHT22;2330;48.158;11.816;2022-09-09T01:43:23;15.00;98.50
4635;DHT22;2330;48.158;11.816;2022-09-09T01:45:53;15.00;98.50
4635;DHT22;2330;48.158;11.816;2022-09-09T01:48:21;15.00;98.50
4635;DHT22;2330;48.158;11.816;2022-09-09T01:50:49;15.00;98.50
4635;DHT22;2330;48.158;11.816;2022-09-09T01:53:17;15.10;98.50
4635;DHT22;2330;48.158;11.816;2022-09-09T01:56:01;15.10;98.50
4635;DHT22;2330;48.158;11.816;2022-09-09T01:58:38;15.20;98.50
4635;DHT22;2330;48.158;11.816;2022-09-09T02:01:20;15.30;98.50
4635;DHT22;2330;48.158;11.816;2022-09-09T02:03:53;15.30;98.50
4635;DHT22;2330;48.158;11.816;2022-09-09T02:06:30;15.30;98.50
4635;DHT22;2330;48.158;11.816;2022-09-09T02:09:03;15.30;98.50
4635;DHT22;2330;48.158;11.816;2022-09-09T02:11:31;15.30;98.50
4635;DHT22;2330;48.158;11.816;2022-09-09T02:14:05;15.20;98.50
4635;DHT22;2330;48.158;11.816;2022-09-09T02:19:13;15.10;98.50
4635;DHT22;2330;48.158;11.816;2022-09-09T02:21:43;15.10;98.50
4635;DHT22;2330;48.158;11.816;2022-09-09T02:24:14;15.10;98.50
4635;DHT22;2330;48.158;11.816;2022-09-09T02:26:43;15.10;98.50
4635;DHT22;2330;48.158;11.816;2022-09-09T02:29:28;15.10;98.50
4635;DHT22;2330;48.158;11.816;2022-09-09T02:31:59;15.10;98.50
4635;DHT22;2330;48.158;11.816;2022-09-09T02:34:30;15.10;98.50
4635;DHT22;2330;48.158;11.816;2022-09-09T02:36:59;15.10;98.50
4635;DHT22;2330;48.158;11.816;2022-09-09T02:39:26;15.00;98.50
4635;DHT22;2330;48.158;11.816;2022-09-09T02:41:53;15.10;98.50
4635;DHT22;2330;48.158;11.816;2022-09-09T02:44:19;15.10;98.50
4635;DHT22;2330;48.158;11.816;2022-09-09T02:52:20;15.00;98.50
4635;DHT22;2330;48.158;11.816;2022-09-09T02:54:53;15.00;98.50
4635;DHT22;2330;48.158;11.816;2022-09-09T02:57:27;15.00;98.50
4635;DHT22;2330;48.158;11.816;2022-09-09T03:00:00;15.10;98.50
4635;DHT22;2330;48.158;11.816;2022-09-09T03:02:28;15.00;98.50
4635;DHT22;2330;48.158;11.816;2022-09-09T03:04:54;15.00;98.50
4635;DHT22;2330;48.158;11.816;2022-09-09T03:07:21;15.00;98.50
4635;DHT22;2330;48.158;11.816;2022-09-09T03:09:48;15.00;98.50
4635;DHT22;2330;48.158;11.816;2022-09-09T03:12:15;15.00;98.50
4635;DHT22;2330;48.158;11.816;2022-09-09T03:14:42;15.00;98.50
4635;DHT22;2330;48.158;11.816;2022-09-09T03:17:11;15.00;98.50
4635;DHT22;2330;48.158;11.816;2022-09-09T03:19:38;15.00;98.50
4635;DHT22;2330;48.158;11.816;2022-09-09T03:22:05;14.90;98.50
4635;DHT22;2330;48.158;11.816;2022-09-09T03:24:32;14.90;98.50
4635;DHT22;2330;48.158;11.816;2022-09-09T03:26:59;14.90;98.50
4635;DHT22;2330;48.158;11.816;2022-09-09T03:29:25;14.90;98.50
4635;DHT22;2330;48.158;11.816;2022-09-09T03:31:53;14.90;98.50
4635;DHT22;2330;48.158;11.816;2022-09-09T03:34:20;14.90;98.50
4635;DHT22;2330;48.158;11.816;2022-09-09T03:36:47;14.80;98.50
4635;DHT22;2330;48.158;11.816;2022-09-09T03:39:15;14.80;98.50
4635;DHT22;2330;48.158;11.816;2022-09-09T03:41:41;14.70;98.50
4635;DHT22;2330;48.158;11.816;2022-09-09T03:44:08;14.70;98.50
4635;DHT22;2330;48.158;11.816;2022-09-09T03:46:35;14.60;98.50
4635;DHT22;2330;48.158;11.816;2022-09-09T03:49:02;14.60;98.50
4635;DHT22;2330;48.158;11.816;2022-09-09T03:51:28;14.60;98.50
4635;DHT22;2330;48.158;11.816;2022-09-09T03:53:55;14.50;98.50
4635;DHT22;2330;48.158;11.816;2022-09-09T03:56:23;14.40;98.50
4635;DHT22;2330;48.158;11.816;2022-09-09T03:58:50;14.40;98.50
4635;DHT22;2330;48.158;11.816;2022-09-09T04:01:16;14.40;98.50
4635;DHT22;2330;48.158;11.816;2022-09-09T04:03:44;14.40;98.50
4635;DHT22;2330;48.158;11.816;2022-09-09T04:06:12;14.30;98.50
4635;DHT22;2330;48.158;11.816;2022-09-09T04:08:41;14.30;98.50
4635;DHT22;2330;48.158;11.816;2022-09-09T04:11:08;14.30;98.50
4635;DHT22;2330;48.158;11.816;2022-09-09T04:13:37;14.30;98.50
4635;DHT22;2330;48.158;11.816;2022-09-09T04:16:05;14.30;98.50
4635;DHT22;2330;48.158;11.816;2022-09-09T04:18:32;14.30;98.50
4635;DHT22;2330;48.158;11.816;2022-09-09T04:21:01;14.30;98.50
4635;DHT22;2330;48.158;11.816;2022-09-09T04:23:28;14.30;98.50
4635;DHT22;2330;48.158;11.816;2022-09-09T04:25:58;14.30;98.50
4635;DHT22;2330;48.158;11.816;2022-09-09T04:28:27;14.30;98.50
4635;DHT22;2330;48.158;11.816;2022-09-09T04:30:54;14.40;98.50
4635;DHT22;2330;48.158;11.816;2022-09-09T04:33:21;14.40;98.50
4635;DHT22;2330;48.158;11.816;2022-09-09T04:35:49;14.40;98.50
4635;DHT22;2330;48.158;11.816;2022-09-09T04:38:17;14.30;98.50
4635;DHT22;2330;48.158;11.816;2022-09-09T04:40:47;14.20;98.50
4635;DHT22;2330;48.158;11.816;2022-09-09T04:43:15;14.20;98.50
4635;DHT22;2330;48.158;11.816;2022-09-09T04:45:42;14.30;98.50
4635;DHT22;2330;48.158;11.816;2022-09-09T04:48:09;14.20;98.50
4635;DHT22;2330;48.158;11.816;2022-09-09T04:50:36;14.20;98.50
4635;DHT22;2330;48.158;11.816;2022-09-09T04:53:04;14.20;98.50
4635;DHT22;2330;48.158;11.816;2022-09-09T04:55:31;14.20;98.50
4635;DHT22;2330;48.158;11.816;2022-09-09T04:58:06;14.20;98.50
4635;DHT22;2330;48.158;11.816;2022-09-09T05:00:36;14.20;98.50
4635;DHT22;2330;48.158;11.816;2022-09-09T05:03:05;14.20;98.50
4635;DHT22;2330;48.158;11.816;2022-09-09T05:05:33;14.20;98.50
4635;DHT22;2330;48.158;11.816;2022-09-09T05:08:08;14.20;98.50
4635;DHT22;2330;48.158;11.816;2022-09-09T05:10:37;14.30;98.50
4635;DHT22;2330;48.158;11.816;2022-09-09T05:13:05;14.30;98.50
4635;DHT22;2330;48.158;11.816;2022-09-09T05:15:33;14.30;98.50
4635;DHT22;2330;48.158;11.816;2022-09-09T05:18:00;14.30;98.50
4635;DHT22;2330;48.158;11.816;2022-09-09T05:20:27;14.30;98.50
4635;DHT22;2330;48.158;11.816;2022-09-09T05:22:55;14.30;98.50
4635;DHT22;2330;48.158;11.816;2022-09-09T05:25:23;14.30;98.50
4635;DHT22;2330;48.158;11.816;2022-09-09T05:27:52;14.40;98.50
4635;DHT22;2330;48.158;11.816;2022-09-09T05:30:20;14.40;98.50
4635;DHT22;2330;48.158;11.816;2022-09-09T05:32:48;14.40;98.50
4635;DHT22;2330;48.158;11.816;2022-09-09T05:35:15;14.40;98.50
4635;DHT22;2330;48.158;11.816;2022-09-09T05:37:42;14.50;98.50
4635;DHT22;2330;48.158;11.816;2022-09-09T05:40:09;14.60;98.50
4635;DHT22;2330;48.158;11.816;2022-09-09T05:42:37;14.60;98.50
4635;DHT22;2330;48.158;11.816;2022-09-09T05:45:06;14.70;98.50
4635;DHT22;2330;48.158;11.816;2022-09-09T05:47:34;14.70;98.50
4635;DHT22;2330;48.158;11.816;2022-09-09T05:50:01;14.80;98.50
4635;DHT22;2330;48.158;11.816;2022-09-09T05:52:28;14.90;98.50
4635;DHT22;2330;48.158;11.816;2022-09-09T05:54:55;14.90;98.50
4635;DHT22;2330;48.158;11.816;2022-09-09T05:57:23;14.80;98.50
4635;DHT22;2330;48.158;11.816;2022-09-09T05:59:50;14.80;98.50
4635;DHT22;2330;48.158;11.816;2022-09-09T06:02:16;14.80;98.50
4635;DHT22;2330;48.158;11.816;2022-09-09T06:04:43;14.90;98.50
4635;DHT22;2330;48.158;11.816;2022-09-09T06:07:10;14.90;98.50
4635;DHT22;2330;48.158;11.816;2022-09-09T06:09:36;15.00;98.50
4635;DHT22;2330;48.158;11.816;2022-09-09T06:12:04;15.00;98.50
4635;DHT22;2330;48.158;11.816;2022-09-09T06:14:30;15.00;98.50
4635;DHT22;2330;48.158;11.816;2022-09-09T06:16:57;15.00;98.50
4635;DHT22;2330;48.158;11.816;2022-09-09T06:19:24;15.00;98.50
4635;DHT22;2330;48.158;11.816;2022-09-09T06:21:52;15.00;98.50
4635;DHT22;2330;48.158;11.816;2022-09-09T06:24:19;15.10;98.50
4635;DHT22;2330;48.158;11.816;2022-09-09T06:26:46;15.20;98.50
4635;DHT22;2330;48.158;11.816;2022-09-09T06:29:13;15.30;98.50
4635;DHT22;2330;48.158;11.816;2022-09-09T06:31:39;15.30;98.50
4635;DHT22;2330;48.158;11.816;2022-09-09T06:34:09;15.30;98.50
4635;DHT22;2330;48.158;11.816;2022-09-09T06:36:37;15.30;98.50
4635;DHT22;2330;48.158;11.816;2022-09-09T06:39:06;15.30;98.50
4635;DHT22;2330;48.158;11.816;2022-09-09T06:41:40;15.30;98.50
4635;DHT22;2330;48.158;11.816;2022-09-09T06:44:07;15.30;98.50
4635;DHT22;2330;48.158;11.816;2022-09-09T06:46:34;15.30;98.50
4635;DHT22;2330;48.158;11.816;2022-09-09T06:49:02;15.30;98.50
4635;DHT22;2330;48.158;11.816;2022-09-09T06:51:35;15.30;98.50
4635;DHT22;2330;48.158;11.816;2022-09-09T06:54:03;15.30;98.50
4635;DHT22;2330;48.158;11.816;2022-09-09T06:56:38;15.30;98.50
4635;DHT22;2330;48.158;11.816;2022-09-09T06:59:07;15.40;98.50
4635;DHT22;2330;48.158;11.816;2022-09-09T07:01:38;15.40;98.50
4635;DHT22;2330;48.158;11.816;2022-09-09T07:04:07;15.40;98.50
4635;DHT22;2330;48.158;11.816;2022-09-09T07:06:37;15.50;98.50
4635;DHT22;2330;48.158;11.816;2022-09-09T07:09:09;15.50;98.50
4635;DHT22;2330;48.158;11.816;2022-09-09T07:11:44;15.50;98.50
4635;DHT22;2330;48.158;11.816;2022-09-09T07:14:11;15.60;98.50
4635;DHT22;2330;48.158;11.816;2022-09-09T07:16:44;15.60;98.50
4635;DHT22;2330;48.158;11.816;2022-09-09T07:19:13;15.60;98.50
4635;DHT22;2330;48.158;11.816;2022-09-09T07:21:40;15.70;98.50
4635;DHT22;2330;48.158;11.816;2022-09-09T07:24:07;15.60;98.50
4635;DHT22;2330;48.158;11.816;2022-09-09T07:26:38;15.60;98.50
4635;DHT22;2330;48.158;11.816;2022-09-09T07:29:05;15.70;98.50
4635;DHT22;2330;48.158;11.816;2022-09-09T07:31:34;15.70;98.50
4635;DHT22;2330;48.158;11.816;2022-09-09T07:34:03;15.80;98.50
4635;DHT22;2330;48.158;11.816;2022-09-09T07:36:32;15.80;98.50
4635;DHT22;2330;48.158;11.816;2022-09-09T07:39:02;15.80;98.50
4635;DHT22;2330;48.158;11.816;2022-09-09T07:41:32;15.90;98.50
4635;DHT22;2330;48.158;11.816;2022-09-09T07:44:08;15.90;98.50
4635;DHT22;2330;48.158;11.816;2022-09-09T07:46:37;15.90;98.50
4635;DHT22;2330;48.158;11.816;2022-09-09T07:49:06;15.90;98.50
4635;DHT22;2330;48.158;11.816;2022-09-09T07:51:40;15.90;98.50
4635;DHT22;2330;48.158;11.816;2022-09-09T07:54:10;15.80;98.50
4635;DHT22;2330;48.158;11.816;2022-09-09T07:56:39;15.80;98.50
4635;DHT22;2330;48.158;11.816;2022-09-09T07:59:07;15.80;98.50
4635;DHT22;2330;48.158;11.816;2022-09-09T08:01:36;15.90;98.50
4635;DHT22;2330;48.158;11.816;2022-09-09T08:04:10;15.90;98.50
4635;DHT22;2330;48.158;11.816;2022-09-09T08:07:04;16.00;98.50
4635;DHT22;2330;48.158;11.816;2022-09-09T08:09:30;16.00;98.50
4635;DHT22;2330;48.158;11.816;2022-09-09T08:11:59;16.10;98.50
4635;DHT22;2330;48.158;11.816;2022-09-09T08:14:26;16.10;98.50
4635;DHT22;2330;48.158;11.816;2022-09-09T08:16:53;16.20;98.50
4635;DHT22;2330;48.158;11.816;2022-09-09T08:19:21;16.20;98.50
4635;DHT22;2330;48.158;11.816;2022-09-09T08:21:48;16.30;98.50
4635;DHT22;2330;48.158;11.816;2022-09-09T08:24:16;16.40;98.50
4635;DHT22;2330;48.158;11.816;2022-09-09T08:26:45;16.60;98.50
4635;DHT22;2330;48.158;11.816;2022-09-09T08:29:12;16.80;98.50
4635;DHT22;2330;48.158;11.816;2022-09-09T08:31:44;16.90;98.50
4635;DHT22;2330;48.158;11.816;2022-09-09T08:34:11;17.00;98.50
4635;DHT22;2330;48.158;11.816;2022-09-09T08:36:41;17.20;98.50
4635;DHT22;2330;48.158;11.816;2022-09-09T08:39:13;17.20;98.50
4635;DHT22;2330;48.158;11.816;2022-09-09T08:44:57;17.10;98.50
4635;DHT22;2330;48.158;11.816;2022-09-09T08:50:38;16.90;98.50
4635;DHT22;2330;48.158;11.816;2022-09-09T09:06:20;16.50;98.50
4635;DHT22;2330;48.158;11.816;2022-09-09T09:09:01;16.50;98.50
4635;DHT22;2330;48.158;11.816;2022-09-09T09:11:35;16.50;98.50
4635;DHT22;2330;48.158;11.816;2022-09-09T09:14:09;16.50;98.50
4635;DHT22;2330;48.158;11.816;2022-09-09T09:17:00;16.50;98.50
4635;DHT22;2330;48.158;11.816;2022-09-09T09:19:28;16.40;98.50
4635;DHT22;2330;48.158;11.816;2022-09-09T09:22:05;16.40;98.50
4635;DHT22;2330;48.158;11.816;2022-09-09T09:25:35;16.40;98.50
4635;DHT22;2330;48.158;11.816;2022-09-09T09:30:36;16.40;98.50
4635;DHT22;2330;48.158;11.816;2022-09-09T09:33:22;16.40;98.50
4635;DHT22;2330;48.158;11.816;2022-09-09T09:35:51;16.40;98.50
4635;DHT22;2330;48.158;11.816;2022-09-09T09:38:25;16.40;98.50
4635;DHT22;2330;48.158;11.816;2022-09-09T09:41:13;16.30;98.50
4635;DHT22;2330;48.158;11.816;2022-09-09T09:43:41;16.20;98.50
4635;DHT22;2330;48.158;11.816;2022-09-09T09:46:23;16.30;98.50
4635;DHT22;2330;48.158;11.816;2022-09-09T09:49:09;16.20;98.50
4635;DHT22;2330;48.158;11.816;2022-09-09T09:51:36;16.10;98.50
4635;DHT22;2330;48.158;11.816;2022-09-09T09:54:28;16.10;98.50
4635;DHT22;2330;48.158;11.816;2022-09-09T09:56:56;16.20;98.50
4635;DHT22;2330;48.158;11.816;2022-09-09T10:04:40;16.20;98.50
4635;DHT22;2330;48.158;11.816;2022-09-09T10:07:21;16.20;98.50
4635;DHT22;2330;48.158;11.816;2022-09-09T10:09:53;16.30;98.50
4635;DHT22;2330;48.158;11.816;2022-09-09T10:15:52;16.50;98.50
4635;DHT22;2330;48.158;11.816;2022-09-09T10:18:40;16.50;98.50
4635;DHT22;2330;48.158;11.816;2022-09-09T10:24:09;16.70;98.50
4635;DHT22;2330;48.158;11.816;2022-09-09T10:30:03;16.90;98.50
4635;DHT22;2330;48.158;11.816;2022-09-09T10:33:04;16.80;98.50
4635;DHT22;2330;48.158;11.816;2022-09-09T10:36:00;16.90;98.50
4635;DHT22;2330;48.158;11.816;2022-09-09T10:38:40;16.90;98.50
4635;DHT22;2330;48.158;11.816;2022-09-09T10:52:12;17.20;98.50
4635;DHT22;2330;48.158;11.816;2022-09-09T10:54:56;17.30;98.50
4635;DHT22;2330;48.158;11.816;2022-09-09T10:57:48;17.40;98.50
4635;DHT22;2330;48.158;11.816;2022-09-09T11:00:25;17.50;98.50
4635;DHT22;2330;48.158;11.816;2022-09-09T11:03:00;17.60;98.50
4635;DHT22;2330;48.158;11.816;2022-09-09T11:05:49;17.70;98.50
4635;DHT22;2330;48.158;11.816;2022-09-09T11:08:21;17.70;98.50
4635;DHT22;2330;48.158;11.816;2022-09-09T11:21:45;18.00;98.50
4635;DHT22;2330;48.158;11.816;2022-09-09T11:24:23;18.10;98.50
4635;DHT22;2330;48.158;11.816;2022-09-09T11:35:02;18.10;98.50
4635;DHT22;2330;48.158;11.816;2022-09-09T11:37:59;18.30;98.50
4635;DHT22;2330;48.158;11.816;2022-09-09T11:40:30;18.50;98.50
4635;DHT22;2330;48.158;11.816;2022-09-09T11:43:25;18.40;98.50
4635;DHT22;2330;48.158;11.816;2022-09-09T11:45:57;18.40;98.50
4635;DHT22;2330;48.158;11.816;2022-09-09T11:48:41;18.30;98.50
4635;DHT22;2330;48.158;11.816;2022-09-09T11:53:52;18.20;98.50
4635;DHT22;2330;48.158;11.816;2022-09-09T11:56:27;18.20;98.50
4635;DHT22;2330;48.158;11.816;2022-09-09T11:59:04;18.10;98.50
4635;DHT22;2330;48.158;11.816;2022-09-09T12:01:42;18.10;98.50
4635;DHT22;2330;48.158;11.816;2022-09-09T12:04:17;17.90;98.50
4635;DHT22;2330;48.158;11.816;2022-09-09T12:06:54;18.10;98.50
4635;DHT22;2330;48.158;11.816;2022-09-09T12:14:44;18.10;98.50
4635;DHT22;2330;48.158;11.816;2022-09-09T12:17:23;18.20;98.50
4635;DHT22;2330;48.158;11.816;2022-09-09T12:20:21;18.20;98.50
4635;DHT22;2330;48.158;11.816;2022-09-09T12:23:17;18.30;98.50
4635;DHT22;2330;48.158;11.816;2022-09-09T12:31:32;18.70;98.50
4635;DHT22;2330;48.158;11.816;2022-09-09T12:34:16;18.90;98.50
4635;DHT22;2330;48.158;11.816;2022-09-09T12:36:44;18.80;98.50
4635;DHT22;2330;48.158;11.816;2022-09-09T12:39:29;18.90;98.50
4635;DHT22;2330;48.158;11.816;2022-09-09T12:41:57;19.10;98.50
4635;DHT22;2330;48.158;11.816;2022-09-09T12:44:25;18.80;98.50
4635;DHT22;2330;48.158;11.816;2022-09-09T12:46:56;18.70;98.50
4635;DHT22;2330;48.158;11.816;2022-09-09T12:52:35;18.50;98.50
4635;DHT22;2330;48.158;11.816;2022-09-09T12:54:59;18.40;98.50
4635;DHT22;2330;48.158;11.816;2022-09-09T12:57:33;18.30;98.50
4635;DHT22;2330;48.158;11.816;2022-09-09T13:00:14;18.30;98.50
4635;DHT22;2330;48.158;11.816;2022-09-09T13:03:00;18.30;98.50
4635;DHT22;2330;48.158;11.816;2022-09-09T13:05:36;18.30;98.50
4635;DHT22;2330;48.158;11.816;2022-09-09T13:08:05;18.50;98.50
4635;DHT22;2330;48.158;11.816;2022-09-09T13:13:36;18.80;98.50
4635;DHT22;2330;48.158;11.816;2022-09-09T13:16:06;18.80;98.50
4635;DHT22;2330;48.158;11.816;2022-09-09T13:18:36;19.00;98.50
4635;DHT22;2330;48.158;11.816;2022-09-09T13:21:05;19.00;98.50
4635;DHT22;2330;48.158;11.816;2022-09-09T13:23:36;19.00;98.50
4635;DHT22;2330;48.158;11.816;2022-09-09T13:26:24;18.90;98.50
4635;DHT22;2330;48.158;11.816;2022-09-09T13:28:53;18.80;98.50
4635;DHT22;2330;48.158;11.816;2022-09-09T13:31:33;18.90;98.50
4635;DHT22;2330;48.158;11.816;2022-09-09T13:34:14;18.90;98.50
4635;DHT22;2330;48.158;11.816;2022-09-09T13:36:41;18.90;98.50
4635;DHT22;2330;48.158;11.816;2022-09-09T13:39:17;18.80;98.50
4635;DHT22;2330;48.158;11.816;2022-09-09T13:41:46;18.90;98.50
4635;DHT22;2330;48.158;11.816;2022-09-09T13:44:20;18.90;98.50
4635;DHT22;2330;48.158;11.816;2022-09-09T13:47:04;18.80;98.50
4635;DHT22;2330;48.158;11.816;2022-09-09T13:49:36;18.70;98.50
4635;DHT22;2330;48.158;11.816;2022-09-09T13:52:09;18.70;98.50
4635;DHT22;2330;48.158;11.816;2022-09-09T13:54:36;18.80;98.50
4635;DHT22;2330;48.158;11.816;2022-09-09T13:57:03;18.60;98.50
4635;DHT22;2330;48.158;11.816;2022-09-09T13:59:31;18.50;98.50
4635;DHT22;2330;48.158;11.816;2022-09-09T14:02:18;18.40;98.50
4635;DHT22;2330;48.158;11.816;2022-09-09T14:04:45;18.30;98.50
4635;DHT22;2330;48.158;11.816;2022-09-09T14:07:16;18.20;98.50
4635;DHT22;2330;48.158;11.816;2022-09-09T14:09:44;18.00;98.50
4635;DHT22;2330;48.158;11.816;2022-09-09T14:12:16;18.00;98.50
4635;DHT22;2330;48.158;11.816;2022-09-09T14:14:44;17.90;98.50
4635;DHT22;2330;48.158;11.816;2022-09-09T14:17:12;17.90;98.50
4635;DHT22;2330;48.158;11.816;2022-09-09T14:19:39;17.90;98.50
4635;DHT22;2330;48.158;11.816;2022-09-09T14:22:05;17.90;98.50
4635;DHT22;2330;48.158;11.816;2022-09-09T14:24:32;17.90;98.50
4635;DHT22;2330;48.158;11.816;2022-09-09T14:27:00;17.90;98.50
4635;DHT22;2330;48.158;11.816;2022-09-09T14:29:27;17.90;98.50
4635;DHT22;2330;48.158;11.816;2022-09-09T14:31:53;17.90;98.50
4635;DHT22;2330;48.158;11.816;2022-09-09T14:34:20;17.80;98.50
4635;DHT22;2330;48.158;11.816;2022-09-09T14:36:47;17.70;98.50
4635;DHT22;2330;48.158;11.816;2022-09-09T14:39:13;17.80;98.50
4635;DHT22;2330;48.158;11.816;2022-09-09T14:41:40;17.90;98.50
4635;DHT22;2330;48.158;11.816;2022-09-09T14:44:07;17.90;98.50
4635;DHT22;2330;48.158;11.816;2022-09-09T14:46:34;18.00;98.50
4635;DHT22;2330;48.158;11.816;2022-09-09T14:49:02;18.10;98.50
4635;DHT22;2330;48.158;11.816;2022-09-09T14:51:28;18.30;98.50
4635;DHT22;2330;48.158;11.816;2022-09-09T14:53:57;18.40;98.50
4635;DHT22;2330;48.158;11.816;2022-09-09T14:56:30;18.40;98.50
4635;DHT22;2330;48.158;11.816;2022-09-09T14:58:58;18.30;98.50
4635;DHT22;2330;48.158;11.816;2022-09-09T15:01:28;18.30;98.50
4635;DHT22;2330;48.158;11.816;2022-09-09T15:03:57;18.30;98.50
4635;DHT22;2330;48.158;11.816;2022-09-09T15:06:26;18.20;98.50
4635;DHT22;2330;48.158;11.816;2022-09-09T15:08:53;18.20;98.50
4635;DHT22;2330;48.158;11.816;2022-09-09T15:11:20;18.10;98.50
4635;DHT22;2330;48.158;11.816;2022-09-09T15:13:51;18.10;98.50
4635;DHT22;2330;48.158;11.816;2022-09-09T15:16:20;18.10;98.50
4635;DHT22;2330;48.158;11.816;2022-09-09T15:18:51;18.20;98.50
4635;DHT22;2330;48.158;11.816;2022-09-09T15:21:20;18.20;98.50
4635;DHT22;2330;48.158;11.816;2022-09-09T15:23:48;18.20;98.50
4635;DHT22;2330;48.158;11.816;2022-09-09T15:26:15;18.20;98.50
4635;DHT22;2330;48.158;11.816;2022-09-09T15:28:43;18.20;98.50
4635;DHT22;2330;48.158;11.816;2022-09-09T15:31:15;18.10;98.50
4635;DHT22;2330;48.158;11.816;2022-09-09T15:33:52;18.10;98.50
4635;DHT22;2330;48.158;11.816;2022-09-09T15:36:24;18.20;98.50
4635;DHT22;2330;48.158;11.816;2022-09-09T15:38:52;18.10;98.50
4635;DHT22;2330;48.158;11.816;2022-09-09T15:41:20;18.10;98.50
4635;DHT22;2330;48.158;11.816;2022-09-09T15:43:49;18.00;98.50
4635;DHT22;2330;48.158;11.816;2022-09-09T15:48:44;17.80;98.50
4635;DHT22;2330;48.158;11.816;2022-09-09T15:51:14;17.70;98.50
4635;DHT22;2330;48.158;11.816;2022-09-09T15:54:01;17.60;98.50
4635;DHT22;2330;48.158;11.816;2022-09-09T15:56:29;17.60;98.50
4635;DHT22;2330;48.158;11.816;2022-09-09T15:59:00;17.60;98.50
4635;DHT22;2330;48.158;11.816;2022-09-09T16:01:29;17.60;98.50
4635;DHT22;2330;48.158;11.816;2022-09-09T16:03:58;17.50;98.50
4635;DHT22;2330;48.158;11.816;2022-09-09T16:06:27;17.50;98.50
4635;DHT22;2330;48.158;11.816;2022-09-09T16:08:56;17.50;98.50
4635;DHT22;2330;48.158;11.816;2022-09-09T16:11:28;17.50;98.50
4635;DHT22;2330;48.158;11.816;2022-09-09T16:13:55;17.50;98.50
4635;DHT22;2330;48.158;11.816;2022-09-09T16:16:24;17.50;98.50
4635;DHT22;2330;48.158;11.816;2022-09-09T16:18:54;17.60;98.50
4635;DHT22;2330;48.158;11.816;2022-09-09T16:21:27;17.70;98.50
4635;DHT22;2330;48.158;11.816;2022-09-09T16:23:57;17.80;98.50
4635;DHT22;2330;48.158;11.816;2022-09-09T16:26:26;17.80;98.50
4635;DHT22;2330;48.158;11.816;2022-09-09T16:28:54;17.70;98.50
4635;DHT22;2330;48.158;11.816;2022-09-09T16:31:22;17.70;98.50
4635;DHT22;2330;48.158;11.816;2022-09-09T16:33:50;17.60;98.50
4635;DHT22;2330;48.158;11.816;2022-09-09T16:36:20;17.60;98.50
4635;DHT22;2330;48.158;11.816;2022-09-09T16:38:47;17.50;98.50
4635;DHT22;2330;48.158;11.816;2022-09-09T16:41:14;17.50;98.50
4635;DHT22;2330;48.158;11.816;2022-09-09T16:43:41;17.50;98.50
4635;DHT22;2330;48.158;11.816;2022-09-09T16:46:16;17.40;98.50
4635;DHT22;2330;48.158;11.816;2022-09-09T16:48:46;17.40;98.50
4635;DHT22;2330;48.158;11.816;2022-09-09T16:51:19;17.40;98.50
4635;DHT22;2330;48.158;11.816;2022-09-09T16:53:46;17.40;98.50
4635;DHT22;2330;48.158;11.816;2022-09-09T16:56:15;17.50;98.50
4635;DHT22;2330;48.158;11.816;2022-09-09T16:58:43;17.50;98.50
4635;DHT22;2330;48.158;11.816;2022-09-09T17:01:11;17.50;98.50
4635;DHT22;2330;48.158;11.816;2022-09-09T17:03:40;17.50;98.50
4635;DHT22;2330;48.158;11.816;2022-09-09T17:06:12;17.50;98.50
4635;DHT22;2330;48.158;11.816;2022-09-09T17:08:39;17.60;98.50
4635;DHT22;2330;48.158;11.816;2022-09-09T17:11:15;17.50;98.50
4635;DHT22;2330;48.158;11.816;2022-09-09T17:13:42;17.40;98.50
4635;DHT22;2330;48.158;11.816;2022-09-09T17:16:10;17.40;98.50
4635;DHT22;2330;48.158;11.816;2022-09-09T17:18:37;17.30;98.50
4635;DHT22;2330;48.158;11.816;2022-09-09T17:21:06;17.20;98.50
4635;DHT22;2330;48.158;11.816;2022-09-09T17:23:35;17.10;98.50
4635;DHT22;2330;48.158;11.816;2022-09-09T17:26:06;17.00;98.50
4635;DHT22;2330;48.158;11.816;2022-09-09T17:28:35;17.00;98.50
4635;DHT22;2330;48.158;11.816;2022-09-09T17:31:02;16.90;98.50
4635;DHT22;2330;48.158;11.816;2022-09-09T17:33:31;16.90;98.50
4635;DHT22;2330;48.158;11.816;2022-09-09T17:36:01;16.80;98.50
4635;DHT22;2330;48.158;11.816;2022-09-09T17:38:28;16.60;98.50
4635;DHT22;2330;48.158;11.816;2022-09-09T17:41:32;16.60;98.50
4635;DHT22;2330;48.158;11.816;2022-09-09T17:43:59;16.50;98.50
4635;DHT22;2330;48.158;11.816;2022-09-09T17:46:46;16.40;98.50
4635;DHT22;2330;48.158;11.816;2022-09-09T17:49:15;16.40;98.50
4635;DHT22;2330;48.158;11.816;2022-09-09T17:51:44;16.30;98.50
4635;DHT22;2330;48.158;11.816;2022-09-09T17:54:16;16.20;98.50
4635;DHT22;2330;48.158;11.816;2022-09-09T17:56:44;16.20;98.50
4635;DHT22;2330;48.158;11.816;2022-09-09T17:59:12;16.10;98.50
4635;DHT22;2330;48.158;11.816;2022-09-09T18:01:41;16.10;98.50
4635;DHT22;2330;48.158;11.816;2022-09-09T18:04:12;16.10;98.50
4635;DHT22;2330;48.158;11.816;2022-09-09T18:06:44;16.10;98.50
4635;DHT22;2330;48.158;11.816;2022-09-09T18:09:16;16.00;98.50
4635;DHT22;2330;48.158;11.816;2022-09-09T18:11:46;15.90;98.50
4635;DHT22;2330;48.158;11.816;2022-09-09T18:14:19;15.90;98.50
4635;DHT22;2330;48.158;11.816;2022-09-09T18:16:46;15.90;98.50